Time;durP1;ratioP1;P1;durP2;ratioP2;P2;SDS_P1;SDS_P2;PMS_P1;PMS_P2;Temp;Humidity;BMP_temperature;BMP_pressure;BME280_temperature;BME280_humidity;BME280_pressure;Samples;Min_cycle;Max_cycle;Signal;HPM_P1;HPM_P2
2023/02/02 00:01:50;;;;;;;7.40;3.93;;;6.00;99.90;;;;;;5034887;28;20205;-86
2023/02/02 00:04:19;;;;;;;10.20;4.13;;;5.90;99.90;;;;;;5023715;28;20204;-85
2023/02/02 00:06:45;;;;;;;12.73;4.40;;;5.90;99.90;;;;;;5015444;28;20174;-86
2023/02/02 00:09:13;;;;;;;10.37;4.43;;;5.90;99.90;;;;;;5016143;28;20220;-86
2023/02/02 00:11:40;;;;;;;10.20;4.23;;;5.80;99.90;;;;;;5016983;28;20185;-85
2023/02/02 00:14:06;;;;;;;8.60;3.87;;;5.80;99.90;;;;;;5027471;28;20838;-86
2023/02/02 00:16:35;;;;;;;11.80;4.30;;;5.90;99.90;;;;;;5036764;28;20558;-85
2023/02/02 00:19:07;;;;;;;10.10;4.33;;;5.80;99.90;;;;;;5036818;28;20183;-85
2023/02/02 00:21:33;;;;;;;10.07;4.37;;;5.80;99.90;;;;;;5035715;28;20176;-86
2023/02/02 00:23:59;;;;;;;12.37;4.70;;;5.80;99.90;;;;;;5035807;28;20184;-84
2023/02/02 00:26:24;;;;;;;8.50;4.30;;;5.70;99.90;;;;;;5034546;28;20181;-86
2023/02/02 00:28:50;;;;;;;11.00;4.40;;;5.60;99.90;;;;;;5035240;28;20187;-86
2023/02/02 00:31:16;;;;;;;10.83;4.73;;;5.60;99.90;;;;;;5036673;28;20264;-85
2023/02/02 00:33:46;;;;;;;11.27;3.93;;;5.60;99.90;;;;;;5036233;28;20170;-86
2023/02/02 00:36:11;;;;;;;12.17;4.63;;;5.50;99.90;;;;;;5035538;28;20196;-85
2023/02/02 00:38:37;;;;;;;10.07;4.40;;;5.60;99.90;;;;;;5027799;28;20189;-85
2023/02/02 00:41:03;;;;;;;9.37;4.67;;;5.50;99.90;;;;;;5026205;28;20232;-86
2023/02/02 00:43:29;;;;;;;8.13;3.73;;;5.50;99.90;;;;;;5021759;28;20181;-84
2023/02/02 00:45:55;;;;;;;12.90;4.23;;;5.50;99.90;;;;;;5036090;28;20733;-86
2023/02/02 00:48:21;;;;;;;14.00;4.37;;;5.50;99.90;;;;;;5036397;28;20177;-86
2023/02/02 00:50:46;;;;;;;11.47;4.10;;;5.50;99.90;;;;;;5035978;28;20196;-86
2023/02/02 00:53:12;;;;;;;7.63;3.60;;;5.60;99.90;;;;;;5036041;28;20181;-85
2023/02/02 00:55:38;;;;;;;8.17;4.00;;;5.40;99.90;;;;;;5036206;28;20211;-85
2023/02/02 00:58:03;;;;;;;8.80;4.60;;;5.40;99.90;;;;;;5035099;28;20239;-87
2023/02/02 01:00:29;;;;;;;8.50;4.43;;;5.40;99.90;;;;;;5035527;28;20209;-85
2023/02/02 01:02:55;;;;;;;9.13;3.73;;;5.40;99.90;;;;;;5029315;28;20204;-86
2023/02/02 01:05:22;;;;;;;7.33;3.20;;;5.40;99.90;;;;;;5023339;28;20287;-86
2023/02/02 01:07:48;;;;;;;9.20;3.87;;;5.50;99.90;;;;;;5034982;28;20184;-86
2023/02/02 01:10:16;;;;;;;8.20;4.20;;;5.60;99.90;;;;;;5034497;28;20226;-86
2023/02/02 01:12:42;;;;;;;5.40;3.40;;;5.50;99.90;;;;;;5034007;28;20219;-85
2023/02/02 01:15:09;;;;;;;7.13;3.67;;;5.50;99.90;;;;;;5015876;28;20205;-87
2023/02/02 01:17:35;;;;;;;10.90;4.30;;;5.50;99.90;;;;;;5034518;28;20184;-86
2023/02/02 01:20:01;;;;;;;9.30;4.17;;;5.50;99.90;;;;;;5034119;28;20276;-86
2023/02/02 01:22:27;;;;;;;8.73;3.80;;;5.60;99.90;;;;;;5032898;28;20189;-86
2023/02/02 01:24:52;;;;;;;8.00;4.03;;;5.70;99.90;;;;;;5032665;28;20775;-87
2023/02/02 01:27:18;;;;;;;9.60;4.00;;;5.70;99.90;;;;;;5032135;28;20535;-85
2023/02/02 01:29:44;;;;;;;9.20;3.30;;;5.60;99.90;;;;;;5032241;28;20197;-86
2023/02/02 01:32:10;;;;;;;9.73;4.20;;;5.60;99.90;;;;;;5032163;28;20177;-87
2023/02/02 01:34:40;;;;;;;8.73;3.70;;;5.60;99.90;;;;;;5031655;28;20189;-86
2023/02/02 01:37:09;;;;;;;9.83;3.97;;;5.60;99.90;;;;;;5032582;28;20212;-85
2023/02/02 01:39:35;;;;;;;9.80;3.50;;;5.60;99.90;;;;;;5023252;28;20217;-85
2023/02/02 01:42:01;;;;;;;8.77;4.17;;;5.60;99.90;;;;;;5032762;28;20578;-86
2023/02/02 01:44:51;;;;;;;7.87;3.70;;;5.60;99.90;;;;;;5032204;28;20201;-86
2023/02/02 01:47:20;;;;;;;8.00;3.73;;;5.50;99.90;;;;;;5033364;28;20322;-86
2023/02/02 01:49:46;;;;;;;10.07;3.77;;;5.50;99.90;;;;;;5033227;28;20263;-86
2023/02/02 01:52:16;;;;;;;10.10;4.03;;;5.60;99.90;;;;;;5033300;28;20192;-86
2023/02/02 01:54:47;;;;;;;7.87;3.83;;;5.60;99.90;;;;;;5031373;28;20192;-86
2023/02/02 01:57:42;;;;;;;8.63;3.73;;;5.60;99.90;;;;;;5031836;28;20180;-86
2023/02/02 02:00:12;;;;;;;7.70;3.90;;;5.60;99.90;;;;;;5010456;28;20225;-88
2023/02/02 02:02:40;;;;;;;6.87;3.43;;;5.60;99.90;;;;;;5022011;28;20586;-87
2023/02/02 02:05:06;;;;;;;8.93;3.77;;;5.60;99.90;;;;;;5015119;28;20289;-86
2023/02/02 02:07:32;;;;;;;5.73;3.47;;;5.60;99.90;;;;;;5011883;28;20188;-86
2023/02/02 02:09:58;;;;;;;6.90;3.20;;;5.70;99.90;;;;;;5014609;28;20201;-86
2023/02/02 02:12:23;;;;;;;8.47;3.43;;;5.60;99.90;;;;;;5021936;28;20192;-86
2023/02/02 02:17:40;;;;;;;6.00;3.37;;;5.60;99.90;;;;;;5012774;28;20235;-87
2023/02/02 02:26:58;;;;;;;8.87;3.40;;;5.70;99.90;;;;;;5018111;28;20279;-85
2023/02/02 02:29:36;;;;;;;7.17;3.40;;;5.70;99.90;;;;;;5031303;28;20196;-85
2023/02/02 02:32:32;;;;;;;8.43;3.70;;;5.70;99.90;;;;;;5030949;28;20230;-85
2023/02/02 02:35:39;;;;;;;14.37;4.00;;;5.80;99.90;;;;;;5021280;28;20258;-85
2023/02/02 02:38:08;;;;;;;12.50;4.17;;;5.70;99.90;;;;;;4970597;28;20692;-87
2023/02/02 02:40:45;;;;;;;12.53;4.13;;;5.70;99.90;;;;;;4970893;28;20228;-85
2023/02/02 02:43:17;;;;;;;8.97;3.70;;;5.70;99.90;;;;;;5007358;28;20189;-84
2023/02/02 02:45:44;;;;;;;9.40;3.93;;;5.70;99.90;;;;;;5033037;28;20283;-84
2023/02/02 02:48:09;;;;;;;9.80;4.10;;;5.70;99.90;;;;;;5032455;28;20173;-85
2023/02/02 02:50:36;;;;;;;11.90;4.27;;;5.70;99.90;;;;;;5031024;28;20755;-85
2023/02/02 02:53:10;;;;;;;10.27;3.73;;;5.80;99.90;;;;;;5030637;28;20177;-84
2023/02/02 02:55:47;;;;;;;9.07;3.80;;;5.80;99.90;;;;;;5032420;28;20766;-85
2023/02/02 02:58:25;;;;;;;10.97;4.23;;;5.70;99.90;;;;;;5011447;28;20683;-86
2023/02/02 03:00:59;;;;;;;9.60;4.60;;;5.70;99.90;;;;;;5013131;28;20204;-85
2023/02/02 03:03:36;;;;;;;8.97;4.10;;;5.60;99.90;;;;;;5027585;28;20424;-86
2023/02/02 03:06:11;;;;;;;9.23;4.40;;;5.60;99.90;;;;;;5015937;28;20219;-85
2023/02/02 03:08:50;;;;;;;7.60;3.70;;;5.50;99.90;;;;;;5016451;28;20176;-85
2023/02/02 03:11:16;;;;;;;8.73;4.03;;;5.50;99.90;;;;;;5024641;28;20173;-86
2023/02/02 03:13:43;;;;;;;13.37;4.13;;;5.50;99.90;;;;;;5026689;28;20228;-84
2023/02/02 03:16:10;;;;;;;13.97;4.03;;;5.50;99.90;;;;;;5015411;28;20189;-85
2023/02/02 03:18:36;;;;;;;11.23;4.90;;;5.50;99.90;;;;;;5014774;28;20190;-85
2023/02/02 03:21:02;;;;;;;11.03;4.60;;;5.50;99.90;;;;;;5021426;28;20213;-86
2023/02/02 03:23:28;;;;;;;5.77;3.53;;;5.50;99.90;;;;;;5034888;28;20225;-85
2023/02/02 03:25:54;;;;;;;10.40;4.20;;;5.50;99.90;;;;;;5034408;28;20207;-86
2023/02/02 03:28:21;;;;;;;9.63;4.40;;;5.50;99.90;;;;;;5034337;28;20195;-85
2023/02/02 03:30:47;;;;;;;16.27;4.77;;;5.50;99.90;;;;;;5022966;28;20196;-85
2023/02/02 03:33:14;;;;;;;12.37;4.70;;;5.40;99.90;;;;;;5036003;28;20177;-86
2023/02/02 03:35:40;;;;;;;11.47;4.33;;;5.40;99.90;;;;;;5036387;28;20459;-86
2023/02/02 03:38:06;;;;;;;12.70;4.30;;;5.40;99.90;;;;;;5035904;28;20647;-86
2023/02/02 03:40:31;;;;;;;13.17;4.70;;;5.40;99.90;;;;;;5036040;28;20201;-84
2023/02/02 03:42:57;;;;;;;9.57;4.53;;;5.40;99.90;;;;;;5035764;28;20624;-85
2023/02/02 03:45:25;;;;;;;12.33;4.70;;;5.40;99.90;;;;;;5034452;28;20199;-84
2023/02/02 03:47:51;;;;;;;11.30;4.23;;;5.30;99.90;;;;;;5034050;28;20219;-85
2023/02/02 03:50:16;;;;;;;11.93;4.57;;;5.30;99.90;;;;;;5031864;28;20213;-88
2023/02/02 03:52:42;;;;;;;15.97;4.90;;;5.30;99.90;;;;;;5033654;28;20208;-85
2023/02/02 03:55:08;;;;;;;12.23;4.93;;;5.40;99.90;;;;;;5033772;28;20717;-85
2023/02/02 03:57:33;;;;;;;10.07;4.50;;;5.40;99.90;;;;;;5033731;28;20276;-86
2023/02/02 03:59:59;;;;;;;11.40;4.33;;;5.40;99.90;;;;;;5033394;28;20882;-85
2023/02/02 04:02:24;;;;;;;11.80;4.80;;;5.30;99.90;;;;;;5026044;28;20285;-85
2023/02/02 04:04:50;;;;;;;10.70;4.87;;;5.40;99.90;;;;;;5019422;28;20205;-85
2023/02/02 04:07:16;;;;;;;7.87;4.20;;;5.30;99.90;;;;;;5013837;28;20663;-85
2023/02/02 04:09:41;;;;;;;13.97;4.70;;;5.30;99.90;;;;;;5013931;28;20324;-85
2023/02/02 04:12:07;;;;;;;13.73;4.80;;;5.30;99.90;;;;;;5014696;28;20676;-86
2023/02/02 04:14:32;;;;;;;9.87;4.33;;;5.30;99.90;;;;;;5029374;28;20185;-87
2023/02/02 04:16:58;;;;;;;12.50;5.27;;;5.30;99.90;;;;;;5037908;28;20181;-86
2023/02/02 04:19:24;;;;;;;7.73;3.80;;;5.30;99.90;;;;;;5039532;28;20212;-85
2023/02/02 04:21:49;;;;;;;8.10;4.07;;;5.40;99.90;;;;;;5039597;28;20200;-85
2023/02/02 04:24:15;;;;;;;11.17;4.20;;;5.30;99.90;;;;;;5039417;28;20203;-85
2023/02/02 04:26:41;;;;;;;11.33;4.33;;;5.40;99.90;;;;;;5032005;28;20186;-87
2023/02/02 04:29:07;;;;;;;8.10;3.93;;;5.40;99.90;;;;;;5024341;28;20559;-86
2023/02/02 04:31:33;;;;;;;7.53;4.33;;;5.40;99.90;;;;;;5020608;28;20236;-84
2023/02/02 04:33:59;;;;;;;9.43;4.23;;;5.50;99.90;;;;;;5024478;28;20181;-87
2023/02/02 04:36:25;;;;;;;8.60;3.80;;;5.50;99.90;;;;;;5040258;28;20283;-84
2023/02/02 04:38:52;;;;;;;7.57;4.00;;;5.50;99.90;;;;;;5040168;28;20177;-85
2023/02/02 04:41:18;;;;;;;9.30;3.70;;;5.50;99.90;;;;;;5040449;28;20177;-86
2023/02/02 04:43:44;;;;;;;9.63;4.30;;;5.50;99.90;;;;;;5038870;28;20193;-85
2023/02/02 04:46:10;;;;;;;7.47;4.07;;;5.50;99.90;;;;;;5038464;28;20201;-86
2023/02/02 04:48:37;;;;;;;9.30;3.43;;;5.60;99.90;;;;;;5039218;28;20199;-85
2023/02/02 04:51:05;;;;;;;8.23;3.60;;;5.50;99.90;;;;;;5038718;28;20199;-85
2023/02/02 04:53:31;;;;;;;10.37;4.23;;;5.50;99.90;;;;;;5038976;28;20193;-86
2023/02/02 04:56:03;;;;;;;8.07;4.13;;;5.50;99.90;;;;;;5038724;28;20180;-85
2023/02/02 04:58:29;;;;;;;6.63;3.40;;;5.50;99.90;;;;;;5040379;28;20185;-86
2023/02/02 05:00:54;;;;;;;9.33;3.63;;;5.50;99.90;;;;;;5040803;28;20196;-84
2023/02/02 05:03:20;;;;;;;8.93;4.07;;;5.50;99.90;;;;;;5035160;28;20197;-85
2023/02/02 05:05:46;;;;;;;10.43;4.10;;;5.60;99.90;;;;;;5040121;28;20202;-86
2023/02/02 05:08:11;;;;;;;11.43;4.03;;;5.50;99.90;;;;;;5041275;28;20177;-86
2023/02/02 05:10:40;;;;;;;7.20;3.87;;;5.60;99.90;;;;;;5039656;28;20193;-84
2023/02/02 05:13:06;;;;;;;10.23;3.90;;;5.70;99.90;;;;;;5036987;28;20189;-86
2023/02/02 05:15:32;;;;;;;9.17;3.43;;;5.60;99.90;;;;;;5039957;28;20196;-85
2023/02/02 05:17:57;;;;;;;12.23;4.23;;;5.60;99.90;;;;;;5041133;28;20201;-86
2023/02/02 05:20:23;;;;;;;11.67;3.97;;;5.50;99.90;;;;;;5041906;28;20220;-84
2023/02/02 05:22:49;;;;;;;8.97;3.50;;;5.60;99.90;;;;;;5037785;28;20190;-83
2023/02/02 05:25:15;;;;;;;9.00;3.60;;;5.60;99.90;;;;;;5041362;28;20283;-84
2023/02/02 05:27:44;;;;;;;8.10;3.97;;;5.60;99.90;;;;;;5042944;28;20211;-85
2023/02/02 05:30:11;;;;;;;10.50;3.80;;;5.60;99.90;;;;;;5034411;28;20193;-84
2023/02/02 05:32:37;;;;;;;12.37;4.10;;;5.70;99.90;;;;;;5043437;28;20176;-84
2023/02/02 05:35:03;;;;;;;7.67;3.47;;;5.70;99.90;;;;;;5043969;28;20535;-84
2023/02/02 05:37:29;;;;;;;10.27;4.47;;;5.70;99.90;;;;;;5043891;28;20173;-83
2023/02/02 05:39:54;;;;;;;8.17;4.27;;;5.70;99.90;;;;;;5042519;28;20235;-83
2023/02/02 05:42:20;;;;;;;10.93;4.27;;;5.70;99.90;;;;;;5042647;28;20253;-83
2023/02/02 05:44:45;;;;;;;9.50;4.13;;;5.70;99.90;;;;;;5041997;28;20205;-84
2023/02/02 05:47:11;;;;;;;8.87;4.63;;;5.80;99.90;;;;;;5042664;28;20212;-84
2023/02/02 05:49:37;;;;;;;8.87;3.80;;;5.80;99.90;;;;;;5041687;28;20223;-84
2023/02/02 05:52:02;;;;;;;10.50;4.00;;;5.70;99.90;;;;;;5040881;28;20181;-84
2023/02/02 05:54:29;;;;;;;12.43;4.83;;;5.80;99.90;;;;;;5042749;28;20211;-84
2023/02/02 05:56:55;;;;;;;7.97;3.60;;;5.80;99.90;;;;;;5041824;28;20657;-86
2023/02/02 05:59:22;;;;;;;7.67;4.40;;;5.80;99.90;;;;;;5031694;28;20305;-84
2023/02/02 06:01:48;;;;;;;10.00;4.13;;;5.90;99.90;;;;;;5026486;28;20651;-86
2023/02/02 06:04:14;;;;;;;10.63;4.17;;;5.90;99.90;;;;;;5033709;28;20181;-85
2023/02/02 06:06:41;;;;;;;9.83;4.53;;;5.80;99.90;;;;;;5021543;28;20208;-85
2023/02/02 06:09:07;;;;;;;11.30;4.23;;;5.80;99.90;;;;;;5036750;28;20746;-84
2023/02/02 06:11:33;;;;;;;10.37;3.73;;;5.80;99.90;;;;;;5041036;28;20173;-86
2023/02/02 06:13:58;;;;;;;11.03;4.20;;;5.80;99.90;;;;;;5041282;28;20184;-84
2023/02/02 06:16:24;;;;;;;12.33;4.27;;;5.80;99.90;;;;;;5040843;28;20185;-85
2023/02/02 06:18:50;;;;;;;9.07;4.53;;;5.80;99.90;;;;;;5034855;28;20185;-84
2023/02/02 06:21:16;;;;;;;8.30;4.33;;;5.80;99.90;;;;;;5038317;28;20188;-87
2023/02/02 06:23:45;;;;;;;8.63;4.27;;;5.80;99.90;;;;;;5042191;28;20184;-85
2023/02/02 06:26:12;;;;;;;10.70;4.50;;;5.80;99.90;;;;;;5041003;28;20200;-85
2023/02/02 06:28:37;;;;;;;10.90;4.87;;;5.80;99.90;;;;;;5042207;28;20535;-85
2023/02/02 06:31:04;;;;;;;13.03;4.27;;;5.80;99.90;;;;;;5041730;28;20272;-84
2023/02/02 06:33:30;;;;;;;12.00;5.10;;;5.80;99.90;;;;;;5041396;28;20181;-85
2023/02/02 06:36:00;;;;;;;10.23;4.60;;;5.80;99.90;;;;;;5042458;28;20219;-85
2023/02/02 06:38:26;;;;;;;12.93;4.70;;;5.80;99.90;;;;;;5044099;28;20181;-87
2023/02/02 06:40:52;;;;;;;8.90;4.27;;;5.80;99.90;;;;;;5044434;28;20235;-85
2023/02/02 06:43:18;;;;;;;11.10;4.23;;;5.70;99.90;;;;;;5043715;28;20189;-85
2023/02/02 06:45:43;;;;;;;11.83;4.30;;;5.70;99.90;;;;;;5045314;28;20231;-86
2023/02/02 06:48:09;;;;;;;10.60;4.90;;;5.70;99.90;;;;;;5045060;28;20706;-87
2023/02/02 06:50:38;;;;;;;8.07;4.33;;;5.70;99.90;;;;;;5045816;28;20193;-88
2023/02/02 06:53:04;;;;;;;6.50;4.07;;;5.70;99.90;;;;;;5046573;28;20173;-86
2023/02/02 06:55:30;;;;;;;13.87;5.33;;;5.60;99.90;;;;;;5046629;28;20538;-85
2023/02/02 06:57:59;;;;;;;9.63;4.47;;;5.60;99.90;;;;;;5046640;28;20189;-85
2023/02/02 07:00:27;;;;;;;10.93;5.03;;;5.60;99.90;;;;;;5046351;28;20244;-85
2023/02/02 07:02:53;;;;;;;9.60;4.93;;;5.60;99.90;;;;;;5034618;28;20694;-85
2023/02/02 07:05:20;;;;;;;9.93;4.53;;;5.70;99.90;;;;;;5021201;28;20206;-86
2023/02/02 07:07:46;;;;;;;14.80;5.27;;;5.70;99.90;;;;;;5015697;28;20189;-85
2023/02/02 07:10:11;;;;;;;9.30;4.37;;;5.70;99.90;;;;;;5011248;28;20216;-85
2023/02/02 07:12:37;;;;;;;9.77;4.40;;;5.70;99.90;;;;;;5016265;28;20277;-85
2023/02/02 07:15:03;;;;;;;12.17;4.97;;;5.70;99.90;;;;;;5020496;28;20617;-84
2023/02/02 07:17:29;;;;;;;11.60;4.67;;;5.70;99.90;;;;;;5015580;28;20189;-83
2023/02/02 07:19:54;;;;;;;18.00;5.37;;;5.70;99.90;;;;;;5017102;28;20206;-87
2023/02/02 07:22:20;;;;;;;12.63;4.70;;;5.70;99.90;;;;;;5019270;28;20197;-84
2023/02/02 07:24:46;;;;;;;14.90;5.47;;;5.80;99.90;;;;;;5020459;28;20205;-84
2023/02/02 07:27:12;;;;;;;11.13;5.10;;;5.80;99.90;;;;;;5017720;28;20190;-85
2023/02/02 07:29:38;;;;;;;11.00;5.43;;;5.80;99.90;;;;;;5021473;28;20224;-85
2023/02/02 07:32:04;;;;;;;19.27;5.33;;;5.80;99.90;;;;;;5018911;28;20197;-85
2023/02/02 07:34:29;;;;;;;11.47;4.67;;;5.90;99.90;;;;;;5018038;28;20199;-85
2023/02/02 07:36:56;;;;;;;13.30;5.10;;;5.80;99.90;;;;;;5017523;28;20216;-84
2023/02/02 07:39:21;;;;;;;8.20;3.97;;;5.90;99.90;;;;;;5019687;28;20513;-86
2023/02/02 07:41:47;;;;;;;12.67;5.00;;;5.90;99.90;;;;;;5018234;28;20357;-85
2023/02/02 07:44:16;;;;;;;13.83;5.03;;;5.90;99.90;;;;;;5018209;28;20206;-86
2023/02/02 07:46:43;;;;;;;9.43;4.63;;;5.80;99.90;;;;;;5018606;28;20182;-85
2023/02/02 07:49:14;;;;;;;11.63;4.73;;;5.90;99.90;;;;;;5019618;28;20197;-85
2023/02/02 07:51:40;;;;;;;13.20;5.30;;;5.90;99.90;;;;;;5018117;28;21133;-85
2023/02/02 07:54:06;;;;;;;8.10;4.37;;;6.00;99.90;;;;;;5020191;28;20192;-85
2023/02/02 07:56:31;;;;;;;10.03;4.50;;;6.00;99.90;;;;;;5020270;28;20554;-85
2023/02/02 07:58:57;;;;;;;8.17;4.73;;;6.10;99.90;;;;;;5015140;28;20182;-86
2023/02/02 08:01:25;;;;;;;12.27;4.93;;;6.10;99.90;;;;;;5018512;28;20212;-85
2023/02/02 08:03:54;;;;;;;12.07;4.93;;;6.00;99.90;;;;;;5021140;28;20186;-84
2023/02/02 08:06:30;;;;;;;15.63;5.40;;;6.00;99.90;;;;;;5018897;28;20220;-84
2023/02/02 08:08:56;;;;;;;15.07;5.07;;;6.20;99.90;;;;;;5017309;28;20190;-84
2023/02/02 08:11:23;;;;;;;16.17;9.93;;;6.20;99.90;;;;;;5022678;28;20302;-85
2023/02/02 08:13:52;;;;;;;9.70;5.10;;;6.30;99.90;;;;;;5024898;28;20668;-85
2023/02/02 08:16:18;;;;;;;13.80;5.13;;;6.30;99.90;;;;;;5023227;28;20193;-84
2023/02/02 08:18:44;;;;;;;12.40;5.43;;;6.30;99.90;;;;;;5019807;28;20244;-85
2023/02/02 08:21:10;;;;;;;10.63;4.87;;;6.30;99.90;;;;;;5033717;28;20221;-84
2023/02/02 08:23:38;;;;;;;10.27;4.50;;;6.30;99.90;;;;;;5036491;28;20422;-86
2023/02/02 08:26:11;;;;;;;13.47;5.50;;;6.40;99.90;;;;;;5034311;28;20221;-87
2023/02/02 08:28:38;;;;;;;13.67;4.73;;;6.30;99.90;;;;;;5018518;28;20196;-84
2023/02/02 08:31:15;;;;;;;18.00;5.73;;;6.20;99.90;;;;;;5020793;28;20206;-85
2023/02/02 08:33:41;;;;;;;14.93;5.37;;;6.20;99.90;;;;;;5031934;28;20673;-85
2023/02/02 08:36:15;;;;;;;12.67;5.57;;;6.30;99.90;;;;;;5039917;28;20181;-85
2023/02/02 08:38:41;;;;;;;11.40;5.23;;;6.30;99.90;;;;;;5040044;28;20267;-83
2023/02/02 08:41:11;;;;;;;13.93;5.83;;;6.30;99.90;;;;;;5038721;28;20228;-85
2023/02/02 08:43:37;;;;;;;13.00;6.07;;;6.30;99.90;;;;;;5040215;28;20264;-86
2023/02/02 08:46:03;;;;;;;8.47;4.10;;;6.50;99.90;;;;;;5039530;28;20236;-86
2023/02/02 08:48:29;;;;;;;15.83;5.80;;;6.70;99.90;;;;;;5040869;28;20177;-86
2023/02/02 08:50:55;;;;;;;16.73;6.03;;;6.80;99.90;;;;;;5041047;28;20204;-85
2023/02/02 08:53:22;;;;;;;15.77;5.60;;;6.80;99.90;;;;;;5038979;28;20227;-86
2023/02/02 08:55:56;;;;;;;11.30;5.40;;;6.80;99.90;;;;;;5040951;28;20324;-85
2023/02/02 08:58:21;;;;;;;13.60;5.87;;;6.80;99.90;;;;;;5038778;28;20241;-87
2023/02/02 09:00:47;;;;;;;14.37;5.90;;;6.90;99.90;;;;;;5039071;28;20248;-86
2023/02/02 09:03:12;;;;;;;16.53;6.37;;;7.00;99.90;;;;;;5039891;28;20256;-86
2023/02/02 09:05:38;;;;;;;12.47;6.00;;;6.90;99.90;;;;;;5023793;28;20322;-86
2023/02/02 09:08:04;;;;;;;14.27;5.50;;;6.80;99.90;;;;;;5032539;28;20189;-87
2023/02/02 09:10:31;;;;;;;14.13;6.10;;;6.80;99.90;;;;;;5040658;28;20197;-84
2023/02/02 09:12:56;;;;;;;13.23;5.53;;;6.90;99.90;;;;;;5039956;28;20665;-86
2023/02/02 09:15:22;;;;;;;15.33;6.30;;;6.90;99.90;;;;;;5025760;28;20181;-86
2023/02/02 09:17:47;;;;;;;12.53;6.20;;;6.90;99.90;;;;;;5040827;28;20183;-85
2023/02/02 09:20:13;;;;;;;19.87;7.00;;;6.90;99.90;;;;;;5040343;28;20372;-85
2023/02/02 09:22:39;;;;;;;12.63;5.57;;;6.90;99.90;;;;;;5038669;28;20180;-86
2023/02/02 09:25:05;;;;;;;13.60;5.73;;;7.00;99.90;;;;;;5039889;28;20229;-85
2023/02/02 09:27:35;;;;;;;14.00;5.77;;;7.00;99.90;;;;;;5039756;28;20546;-85
2023/02/02 09:30:01;;;;;;;13.00;5.37;;;7.00;99.90;;;;;;5038522;28;20278;-86
2023/02/02 09:32:26;;;;;;;14.37;5.73;;;7.00;99.90;;;;;;5037380;28;20177;-85
2023/02/02 09:34:52;;;;;;;11.30;5.00;;;7.10;99.90;;;;;;5038564;28;20212;-85
2023/02/02 09:37:17;;;;;;;13.70;5.07;;;7.00;99.90;;;;;;5039431;28;20181;-85
2023/02/02 09:39:43;;;;;;;13.63;5.53;;;7.00;99.90;;;;;;5040037;28;20204;-85
2023/02/02 09:42:14;;;;;;;12.67;4.80;;;7.10;99.90;;;;;;5039154;28;20191;-85
2023/02/02 09:44:46;;;;;;;13.83;4.83;;;7.10;99.90;;;;;;5038406;28;20219;-84
2023/02/02 09:47:21;;;;;;;12.00;5.90;;;7.00;99.90;;;;;;5039019;28;20191;-86
2023/02/02 09:49:52;;;;;;;11.90;8.20;;;7.10;99.90;;;;;;5037882;28;20212;-84
2023/02/02 09:52:30;;;;;;;11.77;5.33;;;7.20;99.90;;;;;;5037818;28;20215;-86
2023/02/02 09:55:01;;;;;;;17.17;4.90;;;7.10;99.90;;;;;;5038550;28;20212;-86
2023/02/02 09:57:35;;;;;;;13.37;4.97;;;7.20;99.90;;;;;;5035820;28;20264;-86
2023/02/02 10:00:02;;;;;;;14.10;5.13;;;7.20;99.90;;;;;;5037156;28;20217;-86
2023/02/02 10:02:44;;;;;;;10.27;5.57;;;7.30;99.90;;;;;;5036845;28;20193;-86
2023/02/02 10:05:19;;;;;;;14.67;4.77;;;7.30;99.90;;;;;;5029952;28;20213;-87
2023/02/02 10:07:50;;;;;;;10.10;4.47;;;7.40;99.90;;;;;;5018953;28;20191;-85
2023/02/02 10:10:31;;;;;;;15.53;5.73;;;7.40;99.90;;;;;;5019291;28;20455;-85
2023/02/02 10:13:15;;;;;;;12.07;4.93;;;7.50;99.90;;;;;;5022331;28;20173;-86
2023/02/02 10:16:06;;;;;;;13.50;5.20;;;7.50;99.90;;;;;;5040092;28;20165;-85
2023/02/02 10:18:54;;;;;;;9.77;4.90;;;7.60;99.90;;;;;;5040271;28;20620;-85
2023/02/02 10:21:20;;;;;;;13.03;5.30;;;7.60;99.90;;;;;;5035968;28;20177;-86
2023/02/02 10:23:47;;;;;;;10.93;4.33;;;7.60;99.90;;;;;;5037969;28;20207;-86
2023/02/02 10:26:21;;;;;;;13.13;5.97;;;7.50;99.90;;;;;;5037182;28;20252;-86
2023/02/02 10:29:15;;;;;;;11.20;4.37;;;7.60;99.90;;;;;;5036841;28;20185;-86
2023/02/02 10:32:12;;;;;;;10.40;4.47;;;7.50;99.90;;;;;;5035525;28;20177;-85
2023/02/02 10:34:56;;;;;;;13.70;4.47;;;7.60;99.90;;;;;;5035731;28;20169;-83
2023/02/02 10:37:36;;;;;;;12.57;4.37;;;7.60;99.90;;;;;;5036644;28;20189;-85
2023/02/02 10:40:36;;;;;;;13.13;4.63;;;7.60;99.90;;;;;;5037952;28;20209;-84
2023/02/02 10:46:00;;;;;;;11.50;4.80;;;7.60;99.90;;;;;;5038816;28;20711;-85
2023/02/02 10:48:34;;;;;;;14.37;4.80;;;7.70;99.90;;;;;;5038814;28;20251;-86
2023/02/02 10:51:05;;;;;;;10.27;4.97;;;7.70;99.90;;;;;;5038426;28;20204;-85
2023/02/02 10:53:32;;;;;;;9.80;4.17;;;7.60;99.90;;;;;;5038671;28;20216;-86
2023/02/02 10:56:10;;;;;;;9.90;4.33;;;7.60;99.90;;;;;;5039249;28;20189;-86
2023/02/02 10:59:05;;;;;;;7.57;4.03;;;7.60;99.90;;;;;;5037879;28;20256;-85
2023/02/02 11:01:31;;;;;;;11.13;4.63;;;7.60;99.90;;;;;;5023681;28;20189;-87
2023/02/02 11:06:51;;;;;;;8.23;3.90;;;7.70;99.90;;;;;;5039217;28;20176;-85
2023/02/02 11:09:39;;;;;;;9.63;4.07;;;7.60;99.70;;;;;;5038893;28;20193;-86
2023/02/02 11:12:27;;;;;;;9.67;4.20;;;7.70;99.30;;;;;;5037973;28;20161;-86
2023/02/02 11:15:04;;;;;;;12.13;4.50;;;7.70;98.70;;;;;;5019692;28;20720;-86
2023/02/02 11:17:31;;;;;;;11.83;4.60;;;7.70;99.40;;;;;;5017233;28;20800;-87
2023/02/02 11:19:57;;;;;;;8.97;3.90;;;7.80;99.90;;;;;;5032489;28;20209;-85
2023/02/02 11:22:37;;;;;;;11.73;4.40;;;7.80;98.30;;;;;;5038919;28;20196;-86
2023/02/02 11:25:20;;;;;;;9.67;4.10;;;7.70;99.10;;;;;;5039012;28;20192;-83
2023/02/02 11:27:47;;;;;;;8.80;4.17;;;7.80;98.90;;;;;;5039809;28;20389;-85
2023/02/02 11:30:34;;;;;;;11.57;6.50;;;7.70;98.80;;;;;;5039968;28;20193;-85
2023/02/02 11:33:38;;;;;;;15.50;11.77;;;7.80;99.40;;;;;;5040249;28;20181;-86
2023/02/02 11:36:17;;;;;;;10.70;5.50;;;7.80;98.80;;;;;;5039302;28;20248;-87
2023/02/02 11:38:43;;;;;;;10.17;4.37;;;7.70;97.90;;;;;;5043235;28;20439;-86
2023/02/02 11:41:09;;;;;;;10.97;4.40;;;7.70;98.90;;;;;;5042283;28;20201;-85
2023/02/02 11:43:44;;;;;;;16.50;4.70;;;7.70;98.90;;;;;;5042954;28;20192;-87
2023/02/02 11:46:32;;;;;;;11.33;4.33;;;7.70;99.20;;;;;;5042373;28;20283;-86
2023/02/02 11:49:02;;;;;;;8.53;3.77;;;7.70;99.10;;;;;;5042191;28;20161;-87
2023/02/02 11:51:29;;;;;;;8.07;3.80;;;7.70;99.10;;;;;;5041748;28;20204;-86
2023/02/02 11:54:24;;;;;;;9.43;4.63;;;7.60;98.60;;;;;;5043253;28;20177;-86
2023/02/02 11:56:53;;;;;;;8.80;3.37;;;7.60;98.80;;;;;;5030088;28;20173;-86
2023/02/02 11:59:32;;;;;;;9.20;3.77;;;7.70;98.10;;;;;;5025209;28;20197;-86
2023/02/02 12:02:19;;;;;;;12.00;4.03;;;7.70;98.40;;;;;;5036592;28;20212;-87
2023/02/02 12:04:49;;;;;;;11.93;4.37;;;7.70;98.80;;;;;;5035910;28;20209;-86
2023/02/02 12:07:18;;;;;;;7.77;4.30;;;7.70;98.90;;;;;;5043261;28;20177;-85
2023/02/02 12:09:44;;;;;;;10.37;4.73;;;7.70;98.10;;;;;;5041868;28;20231;-86
2023/02/02 12:12:18;;;;;;;8.30;4.40;;;7.70;98.30;;;;;;5041148;28;20205;-86
2023/02/02 12:15:09;;;;;;;10.00;4.20;;;7.70;98.40;;;;;;5028635;28;20207;-85
2023/02/02 12:17:43;;;;;;;9.97;4.27;;;7.80;98.10;;;;;;5048797;28;20204;-86
2023/02/02 12:20:40;;;;;;;11.47;4.60;;;7.80;98.30;;;;;;5052723;28;20224;-86
2023/02/02 12:23:35;;;;;;;9.63;3.83;;;7.70;98.60;;;;;;5023903;28;20193;-86
2023/02/02 12:26:18;;;;;;;13.20;4.33;;;7.80;98.00;;;;;;5040003;28;20208;-86
2023/02/02 12:29:26;;;;;;;11.00;4.20;;;7.90;97.80;;;;;;5039652;28;20197;-86
2023/02/02 12:32:17;;;;;;;8.50;3.83;;;7.90;97.40;;;;;;5021090;28;20190;-86
2023/02/02 12:34:56;;;;;;;8.20;3.90;;;7.90;98.30;;;;;;5011218;28;20236;-86
2023/02/02 12:37:25;;;;;;;7.83;3.73;;;8.00;97.20;;;;;;5042348;28;20173;-86
2023/02/02 12:40:06;;;;;;;7.83;3.90;;;8.00;97.20;;;;;;5042409;28;20197;-85
2023/02/02 12:42:40;;;;;;;8.17;3.87;;;8.10;97.00;;;;;;5043568;28;20215;-85
2023/02/02 12:45:37;;;;;;;13.23;4.10;;;8.00;97.30;;;;;;5041993;28;20189;-85
2023/02/02 12:48:23;;;;;;;8.97;3.80;;;8.10;97.30;;;;;;5043031;28;20177;-85
2023/02/02 12:51:23;;;;;;;8.93;4.07;;;8.20;97.80;;;;;;5042412;28;20208;-86
2023/02/02 12:54:42;;;;;;;12.70;4.60;;;8.10;98.20;;;;;;5036738;28;20763;-85
2023/02/02 12:57:20;;;;;;;7.97;4.20;;;8.00;99.10;;;;;;4984886;28;20178;-86
2023/02/02 13:00:16;;;;;;;10.50;4.70;;;8.00;98.60;;;;;;5043575;28;20200;-86
2023/02/02 13:03:08;;;;;;;9.07;4.33;;;8.00;98.50;;;;;;5023509;28;20189;-86
2023/02/02 13:05:39;;;;;;;11.17;5.00;;;7.80;99.70;;;;;;5036106;28;20263;-85
2023/02/02 13:08:13;;;;;;;13.20;4.60;;;7.90;99.40;;;;;;5041973;28;20173;-85
2023/02/02 13:10:44;;;;;;;7.53;4.47;;;7.90;99.40;;;;;;5040530;28;20193;-85
2023/02/02 13:13:22;;;;;;;9.33;4.03;;;7.80;99.90;;;;;;5036288;28;20197;-87
2023/02/02 13:15:56;;;;;;;7.30;3.97;;;7.90;99.40;;;;;;5026395;28;20201;-86
2023/02/02 13:18:52;;;;;;;8.70;3.33;;;7.90;99.00;;;;;;5025520;28;20197;-86
2023/02/02 13:21:21;;;;;;;8.53;4.10;;;7.90;99.40;;;;;;5034900;28;20583;-86
2023/02/02 13:23:52;;;;;;;8.40;3.63;;;8.00;98.90;;;;;;5031062;28;20185;-87